Time;durP1;ratioP1;P1;durP2;ratioP2;P2;SDS_P1;SDS_P2;PMS_P1;PMS_P2;Temp;Humidity;BMP_temperature;BMP_pressure;BME280_temperature;BME280_humidity;BME280_pressure;Samples;Min_cycle;Max_cycle;Signal;HPM_P1;HPM_P2
2023/10/03 00:00:31;;;;;;;1.37;1.07;;;;;;;19.50;57.60;100386.84;5091568;28;20228;-70
2023/10/03 00:02:58;;;;;;;3.17;1.23;;;;;;;19.53;57.90;100386.69;5091633;28;20259;-70
2023/10/03 00:05:28;;;;;;;1.13;1.10;;;;;;;19.55;57.88;100390.03;5088748;28;20210;-71
2023/10/03 00:07:55;;;;;;;1.70;1.60;;;;;;;19.52;58.44;100390.19;5091678;28;20675;-71
2023/10/03 00:10:24;;;;;;;6.17;1.10;;;;;;;19.54;58.41;100393.59;5090935;28;20649;-70
2023/10/03 00:12:52;;;;;;;1.43;1.33;;;;;;;19.52;58.63;100389.34;5091633;28;20293;-70
2023/10/03 00:15:21;;;;;;;4.70;1.43;;;;;;;19.47;58.66;100380.97;5090158;28;20197;-70
2023/10/03 00:17:49;;;;;;;1.77;1.67;;;;;;;19.43;58.99;100375.06;5091217;28;20247;-70
2023/10/03 00:20:16;;;;;;;2.87;1.07;;;;;;;19.49;59.12;100392.97;5090901;28;20714;-69
2023/10/03 00:22:44;;;;;;;1.13;1.13;;;;;;;19.49;58.75;100389.50;5091199;28;20198;-69
2023/10/03 00:25:17;;;;;;;1.17;1.00;;;;;;;19.32;58.12;100383.38;5091416;28;20620;-69
2023/10/03 00:27:46;;;;;;;1.60;1.30;;;;;;;19.42;57.94;100388.16;5091164;28;20255;-70
2023/10/03 00:30:13;;;;;;;1.00;1.00;;;;;;;19.37;57.86;100388.34;5090793;28;20200;-70
2023/10/03 00:32:41;;;;;;;1.30;1.20;;;;;;;19.35;57.68;100392.81;5091010;28;20221;-70
2023/10/03 00:35:09;;;;;;;4.37;1.13;;;;;;;19.31;57.75;100388.66;5091624;28;20229;-70
2023/10/03 00:37:37;;;;;;;1.10;1.10;;;;;;;19.21;57.75;100384.84;5091064;28;20728;-70
2023/10/03 00:40:16;;;;;;;1.73;1.00;;;;;;;19.15;58.04;100379.94;5091151;28;20644;-71
2023/10/03 00:42:47;;;;;;;1.10;1.03;;;;;;;19.14;58.23;100379.09;5090336;28;20200;-71
2023/10/03 00:45:19;;;;;;;0.90;0.90;;;;;;;19.14;58.13;100383.47;5091367;28;20606;-71
2023/10/03 00:47:47;;;;;;;2.93;1.10;;;;;;;19.00;57.38;100380.72;5088414;28;20746;-70
2023/10/03 00:50:16;;;;;;;3.60;1.20;;;;;;;18.75;57.92;100386.25;5090853;28;20691;-71
2023/10/03 00:52:45;;;;;;;1.00;1.00;;;;;;;18.61;58.37;100384.28;5091035;28;20210;-71
2023/10/03 00:55:13;;;;;;;1.87;1.50;;;;;;;18.56;58.91;100386.28;5095463;28;20222;-70
2023/10/03 00:57:40;;;;;;;3.63;1.77;;;;;;;18.54;59.35;100377.72;5094632;28;20293;-71
2023/10/03 01:00:14;;;;;;;2.70;1.13;;;;;;;18.55;59.83;100389.78;5094784;28;20201;-70
2023/10/03 01:02:47;;;;;;;5.70;1.60;;;;;;;18.52;59.92;100386.47;5093692;28;20616;-71
2023/10/03 01:05:18;;;;;;;1.50;1.40;;;;;;;18.39;59.51;100375.81;5093939;28;20231;-70
2023/10/03 01:07:46;;;;;;;3.30;1.33;;;;;;;18.40;59.60;100387.03;5093890;28;20669;-70
2023/10/03 01:10:17;;;;;;;6.23;1.40;;;;;;;18.36;59.74;100386.34;5093552;28;20198;-70
2023/10/03 01:12:44;;;;;;;1.07;1.00;;;;;;;18.31;59.66;100383.97;5094384;28;20717;-70
2023/10/03 01:15:16;;;;;;;1.93;1.20;;;;;;;18.27;60.06;100386.75;5094618;28;20291;-70
2023/10/03 01:17:47;;;;;;;2.00;1.73;;;;;;;18.25;60.00;100383.41;5094493;28;20196;-70
2023/10/03 01:20:23;;;;;;;1.20;1.10;;;;;;;18.19;59.84;100381.09;5094248;28;20229;-70
2023/10/03 01:22:51;;;;;;;3.30;1.33;;;;;;;18.03;59.59;100373.13;5094249;28;20667;-70
2023/10/03 01:25:20;;;;;;;1.70;1.60;;;;;;;17.91;59.42;100385.81;5094610;28;20261;-70
2023/10/03 01:27:47;;;;;;;2.07;1.30;;;;;;;17.81;59.50;100377.59;5094227;28;20196;-69
2023/10/03 01:30:14;;;;;;;1.90;1.77;;;;;;;17.74;60.27;100376.19;5093768;28;20195;-70
2023/10/03 01:32:50;;;;;;;1.93;1.33;;;;;;;17.70;60.70;100378.09;5094092;28;20207;-70
2023/10/03 01:35:17;;;;;;;1.07;0.97;;;;;;;17.68;61.33;100374.72;5092455;28;20264;-70
2023/10/03 01:37:45;;;;;;;1.57;1.57;;;;;;;17.61;61.89;100373.28;5094157;28;20196;-70
2023/10/03 01:40:16;;;;;;;1.30;1.20;;;;;;;17.56;62.29;100380.44;5093999;28;20237;-71
2023/10/03 01:42:46;;;;;;;1.63;1.53;;;;;;;17.56;62.26;100374.41;5094047;28;20241;-70
2023/10/03 01:45:15;;;;;;;1.37;1.30;;;;;;;17.52;62.41;100383.19;5094197;28;20196;-72
2023/10/03 01:47:45;;;;;;;0.90;0.90;;;;;;;17.48;62.83;100377.28;5091532;28;20282;-70
2023/10/03 01:50:13;;;;;;;1.03;1.00;;;;;;;17.47;62.83;100374.78;5093742;28;20191;-70
2023/10/03 01:52:41;;;;;;;1.10;1.10;;;;;;;17.38;63.02;100369.97;5093679;28;20218;-70
2023/10/03 01:55:10;;;;;;;2.20;2.00;;;;;;;17.31;63.40;100379.78;5093757;28;20199;-70
2023/10/03 01:57:37;;;;;;;2.47;1.40;;;;;;;17.27;63.68;100378.19;5093838;28;20231;-70
2023/10/03 02:00:18;;;;;;;2.00;1.83;;;;;;;17.24;63.75;100373.16;5093321;28;20199;-69
2023/10/03 02:02:45;;;;;;;1.60;1.50;;;;;;;17.15;64.67;100376.13;5093587;28;20187;-70
2023/10/03 02:05:13;;;;;;;1.17;1.17;;;;;;;17.11;64.75;100372.81;5092429;28;20199;-70
2023/10/03 02:07:41;;;;;;;1.40;1.30;;;;;;;17.05;65.05;100374.81;5093573;28;20261;-70
2023/10/03 02:10:12;;;;;;;3.00;1.57;;;;;;;17.03;65.13;100382.63;5093191;28;20195;-71
2023/10/03 02:12:39;;;;;;;2.30;1.27;;;;;;;16.99;65.24;100377.66;5093652;28;20234;-70
2023/10/03 02:15:09;;;;;;;1.23;1.23;;;;;;;16.84;66.08;100378.28;5093056;28;20198;-70
2023/10/03 02:17:36;;;;;;;2.13;1.60;;;;;;;16.61;66.27;100353.28;5090881;28;20195;-70
2023/10/03 02:20:08;;;;;;;2.27;1.00;;;;;;;16.75;66.35;100390.69;5092823;28;20224;-71
2023/10/03 02:22:38;;;;;;;1.83;1.20;;;;;;;16.72;66.67;100387.38;5092923;28;20192;-70
2023/10/03 02:25:07;;;;;;;1.53;1.50;;;;;;;16.62;66.89;100384.31;5093171;28;20195;-70
2023/10/03 02:27:34;;;;;;;1.60;1.27;;;;;;;16.54;67.40;100385.50;5092989;28;20290;-70
2023/10/03 02:30:05;;;;;;;1.43;1.30;;;;;;;16.52;67.73;100382.09;5093058;28;20210;-70
2023/10/03 02:32:34;;;;;;;2.40;1.40;;;;;;;16.51;68.02;100383.84;5093437;28;20294;-70
2023/10/03 02:35:02;;;;;;;1.87;1.37;;;;;;;16.50;68.07;100383.91;5090733;28;20732;-70
2023/10/03 02:37:28;;;;;;;1.30;1.30;;;;;;;16.45;68.02;100381.50;5092538;28;20199;-70
2023/10/03 02:39:55;;;;;;;1.87;1.40;;;;;;;16.46;68.25;100396.13;5093083;28;20206;-70
2023/10/03 02:42:23;;;;;;;1.60;1.50;;;;;;;16.45;68.27;100394.44;5092912;28;20206;-72
2023/10/03 02:44:50;;;;;;;4.60;1.97;;;;;;;16.45;68.45;100398.75;5093014;28;20290;-70
2023/10/03 02:47:17;;;;;;;2.97;1.23;;;;;;;16.42;68.75;100391.13;5091421;28;20195;-71
2023/10/03 02:49:45;;;;;;;1.63;1.50;;;;;;;16.40;68.73;100398.09;5092971;28;20195;-70
2023/10/03 02:52:12;;;;;;;1.80;1.70;;;;;;;16.38;68.78;100400.75;5092627;28;20298;-70
2023/10/03 02:54:39;;;;;;;1.57;1.47;;;;;;;16.35;69.03;100395.69;5092414;28;20278;-70
2023/10/03 02:57:05;;;;;;;1.97;1.37;;;;;;;16.32;69.80;100394.97;5092644;28;20211;-70
2023/10/03 02:59:32;;;;;;;2.03;1.27;;;;;;;16.24;69.52;100395.25;5092337;28;20199;-69
2023/10/03 03:01:59;;;;;;;2.57;1.60;;;;;;;16.15;69.98;100393.03;5092335;28;20192;-70
2023/10/03 03:04:26;;;;;;;2.93;2.27;;;;;;;16.14;70.17;100401.66;5092765;28;20195;-70
2023/10/03 03:07:01;;;;;;;1.83;1.73;;;;;;;16.09;70.72;100395.84;5092370;28;20667;-70
2023/10/03 03:09:28;;;;;;;6.20;1.43;;;;;;;16.00;71.44;100398.72;5092287;28;20214;-70
2023/10/03 03:12:00;;;;;;;11.50;1.97;;;;;;;15.95;71.95;100398.06;5092479;28;20253;-70
2023/10/03 03:14:27;;;;;;;2.17;2.00;;;;;;;15.94;72.09;100388.63;5092307;28;20736;-70
2023/10/03 03:16:54;;;;;;;2.17;1.30;;;;;;;15.88;72.38;100391.44;5092152;28;20474;-71
2023/10/03 03:19:23;;;;;;;1.37;1.37;;;;;;;15.85;72.44;100394.13;5088483;28;20223;-70
2023/10/03 03:21:50;;;;;;;1.67;1.57;;;;;;;15.75;73.59;100388.44;5092274;28;20191;-71
2023/10/03 03:24:33;;;;;;;1.90;1.80;;;;;;;15.75;73.72;100394.47;5092311;28;20663;-70
2023/10/03 03:27:00;;;;;;;5.10;1.90;;;;;;;15.74;74.17;100387.59;5091277;28;20294;-70
2023/10/03 03:29:35;;;;;;;1.93;1.83;;;;;;;15.71;74.56;100386.84;5092240;28;20200;-70
2023/10/03 03:32:04;;;;;;;1.73;1.70;;;;;;;15.69;74.73;100384.34;5091344;28;20222;-70
2023/10/03 03:34:31;;;;;;;1.47;1.40;;;;;;;15.71;74.73;100382.53;5092222;28;20642;-71
2023/10/03 03:37:16;;;;;;;4.43;2.20;;;;;;;15.62;74.94;100377.69;5090298;28;20199;-70
2023/10/03 03:39:53;;;;;;;1.43;1.40;;;;;;;15.67;74.88;100396.44;5091695;28;20209;-71
2023/10/03 03:42:22;;;;;;;1.47;1.37;;;;;;;15.63;75.40;100389.72;5091186;28;20222;-72
2023/10/03 03:44:48;;;;;;;1.50;1.40;;;;;;;15.61;75.50;100386.34;5091543;28;20207;-71
2023/10/03 03:47:18;;;;;;;1.70;1.60;;;;;;;15.59;75.54;100382.97;5091365;28;20196;-70
2023/10/03 03:49:46;;;;;;;1.93;1.83;;;;;;;15.56;75.45;100383.06;5089077;28;20252;-71
2023/10/03 03:52:16;;;;;;;1.23;1.13;;;;;;;15.49;75.61;100386.75;5091465;28;20265;-70
2023/10/03 03:54:44;;;;;;;2.33;2.23;;;;;;;15.42;75.89;100385.25;5091894;28;20286;-70
2023/10/03 03:57:11;;;;;;;3.90;1.93;;;;;;;15.36;76.07;100382.88;5091881;28;20214;-70
2023/10/03 03:59:38;;;;;;;1.37;1.37;;;;;;;15.37;75.75;100386.31;5090673;28;20199;-70
2023/10/03 04:02:05;;;;;;;2.37;1.63;;;;;;;15.35;75.87;100383.75;5091441;28;20292;-69
2023/10/03 04:04:32;;;;;;;1.70;1.60;;;;;;;15.34;75.74;100387.25;5091317;28;20195;-70
2023/10/03 04:06:59;;;;;;;1.40;1.40;;;;;;;15.35;75.58;100388.13;5091075;28;20245;-69
2023/10/03 04:09:26;;;;;;;2.83;2.00;;;;;;;15.33;75.79;100392.47;5091410;28;20191;-70
2023/10/03 04:11:54;;;;;;;1.60;1.50;;;;;;;15.31;75.99;100387.38;5091412;28;20609;-69
2023/10/03 04:14:22;;;;;;;8.30;1.77;;;;;;;15.32;75.95;100390.78;5090778;28;20210;-69
2023/10/03 04:16:51;;;;;;;2.00;1.50;;;;;;;15.31;75.91;100389.97;5091216;28;20261;-70
2023/10/03 04:19:18;;;;;;;1.57;1.47;;;;;;;15.31;76.64;100386.53;5089563;28;20221;-70
2023/10/03 04:21:44;;;;;;;3.93;2.17;;;;;;;15.29;76.68;100393.47;5091413;28;20198;-70
2023/10/03 04:24:14;;;;;;;4.27;1.50;;;;;;;15.19;76.68;100380.84;5091340;28;20199;-71
2023/10/03 04:26:42;;;;;;;5.37;2.70;;;;;;;15.24;76.56;100398.81;5091221;28;20210;-70
2023/10/03 04:29:13;;;;;;;8.37;1.27;;;;;;;15.23;76.58;100399.69;5090987;28;20199;-70
2023/10/03 04:31:40;;;;;;;1.90;1.63;;;;;;;15.21;76.35;100396.31;5091252;28;20719;-70
2023/10/03 04:34:09;;;;;;;5.37;1.53;;;;;;;15.13;76.61;100403.47;5091096;28;20218;-71
2023/10/03 04:36:36;;;;;;;1.40;1.40;;;;;;;15.04;76.64;100401.19;5089805;28;20556;-70
2023/10/03 04:39:03;;;;;;;2.67;1.53;;;;;;;15.04;77.58;100403.75;5090949;28;20709;-69
2023/10/03 04:41:30;;;;;;;1.83;1.47;;;;;;;14.95;78.17;100388.56;5090966;28;20234;-69
2023/10/03 04:43:57;;;;;;;1.70;1.60;;;;;;;14.96;79.07;100405.78;5091058;28;20187;-69
2023/10/03 04:46:25;;;;;;;2.00;1.90;;;;;;;14.90;80.19;100411.09;5090892;28;20739;-70
2023/10/03 04:48:52;;;;;;;1.70;1.60;;;;;;;14.87;80.55;100408.63;5090715;28;20271;-69
2023/10/03 04:51:19;;;;;;;2.73;1.83;;;;;;;14.89;80.82;100404.28;5090518;28;20202;-69
2023/10/03 04:53:45;;;;;;;1.77;1.67;;;;;;;14.89;80.66;100404.28;5090682;28;20219;-69
2023/10/03 04:56:12;;;;;;;1.50;1.40;;;;;;;14.84;80.74;100403.56;5090904;28;20282;-69
2023/10/03 04:58:41;;;;;;;1.20;1.20;;;;;;;14.78;81.13;100406.34;5091031;28;20639;-70
2023/10/03 05:01:08;;;;;;;2.07;1.90;;;;;;;14.71;80.93;100403.94;5091283;28;20624;-70
2023/10/03 05:03:38;;;;;;;3.67;1.63;;;;;;;14.72;81.31;100407.38;5090227;28;20633;-70
2023/10/03 05:06:04;;;;;;;3.20;1.77;;;;;;;14.73;80.67;100413.38;5090815;28;20637;-70
2023/10/03 05:08:31;;;;;;;1.83;1.80;;;;;;;14.69;80.88;100408.31;5090750;28;20192;-70
2023/10/03 05:11:02;;;;;;;1.10;1.00;;;;;;;14.59;80.94;100406.91;5090847;28;20202;-70
2023/10/03 05:13:29;;;;;;;5.33;2.07;;;;;;;14.61;81.07;100409.44;5090837;28;20694;-69
2023/10/03 05:15:57;;;;;;;1.73;1.63;;;;;;;14.67;80.93;100417.81;5090422;28;20203;-70
2023/10/03 05:18:24;;;;;;;2.13;1.83;;;;;;;14.66;81.04;100408.41;5090354;28;20203;-70
2023/10/03 05:20:56;;;;;;;1.37;1.27;;;;;;;14.67;81.20;100414.41;5090470;28;20242;-70
2023/10/03 05:23:23;;;;;;;1.87;1.70;;;;;;;14.68;80.94;100416.94;5090652;28;20206;-70
2023/10/03 05:25:51;;;;;;;1.07;1.07;;;;;;;14.69;80.83;100418.66;5090467;28;20229;-70
2023/10/03 05:28:18;;;;;;;1.60;1.60;;;;;;;14.64;80.81;100412.75;5090985;28;20200;-70
2023/10/03 05:30:45;;;;;;;2.00;1.37;;;;;;;14.74;80.82;100426.22;5090965;28;20660;-70
2023/10/03 05:33:12;;;;;;;3.07;1.33;;;;;;;14.78;80.44;100432.16;5090255;28;20211;-70
2023/10/03 05:35:39;;;;;;;1.73;1.63;;;;;;;14.85;80.69;100431.06;5089443;28;20203;-70
2023/10/03 05:38:08;;;;;;;2.50;2.07;;;;;;;14.93;80.72;100436.81;5090640;28;20197;-70
2023/10/03 05:40:35;;;;;;;2.17;2.07;;;;;;;15.01;80.18;100440.88;5092096;28;20229;-70
2023/10/03 05:43:03;;;;;;;2.00;1.87;;;;;;;15.13;80.29;100447.38;5093982;28;20241;-70
2023/10/03 05:45:30;;;;;;;2.00;1.70;;;;;;;15.27;79.90;100450.38;5094386;28;20207;-70
2023/10/03 05:47:59;;;;;;;1.60;1.40;;;;;;;15.41;79.01;100445.56;5092637;28;20207;-70
2023/10/03 05:50:26;;;;;;;1.40;1.40;;;;;;;15.52;78.71;100448.69;5093795;28;20203;-69
2023/10/03 05:52:53;;;;;;;1.40;1.40;;;;;;;15.66;78.27;100455.97;5091379;28;20302;-71
2023/10/03 05:55:21;;;;;;;1.70;1.60;;;;;;;15.77;77.94;100460.78;5093198;28;20192;-70
2023/10/03 05:57:48;;;;;;;1.97;1.87;;;;;;;15.92;77.67;100470.59;5093223;28;20252;-70
2023/10/03 06:00:16;;;;;;;1.70;1.60;;;;;;;15.92;78.22;100452.50;5090839;28;20211;-69
2023/10/03 06:02:43;;;;;;;1.60;1.57;;;;;;;16.04;78.33;100472.75;5091924;28;20203;-69
2023/10/03 06:05:12;;;;;;;1.70;1.57;;;;;;;16.17;77.99;100469.66;5089378;28;20199;-70
2023/10/03 06:07:41;;;;;;;1.30;1.30;;;;;;;16.26;78.26;100468.47;5090352;28;20294;-66
2023/10/03 06:10:10;;;;;;;1.53;1.43;;;;;;;16.34;78.18;100468.22;5092639;28;20654;-66
2023/10/03 06:12:39;;;;;;;2.30;2.17;;;;;;;16.47;78.45;100472.88;5092814;28;20214;-66
2023/10/03 06:15:07;;;;;;;1.30;1.20;;;;;;;16.63;78.34;100478.38;5091251;28;20725;-67
2023/10/03 06:17:33;;;;;;;3.10;1.83;;;;;;;16.76;77.63;100480.44;5092848;28;20207;-66
2023/10/03 06:20:00;;;;;;;13.83;2.40;;;;;;;16.92;77.55;100479.84;5092457;28;20594;-67
2023/10/03 06:22:27;;;;;;;2.40;2.10;;;;;;;17.00;77.56;100470.84;5092882;28;20618;-67
2023/10/03 06:24:57;;;;;;;7.27;3.27;;;;;;;17.20;76.67;100480.44;5091727;28;20302;-66
2023/10/03 06:27:24;;;;;;;4.83;3.80;;;;;;;17.27;76.38;100474.94;5092486;28;20203;-67
2023/10/03 06:29:52;;;;;;;4.73;4.33;;;;;;;17.51;76.71;100480.84;5092899;28;20233;-66
2023/10/03 06:32:19;;;;;;;2.83;2.60;;;;;;;17.59;76.23;100478.00;5093360;28;20210;-64
2023/10/03 06:34:45;;;;;;;4.87;2.70;;;;;;;17.70;76.77;100481.84;5093783;28;20636;-66
2023/10/03 06:37:12;;;;;;;5.77;3.70;;;;;;;17.81;76.18;100484.81;5093814;28;20199;-67
2023/10/03 06:39:40;;;;;;;4.83;4.27;;;;;;;17.89;75.88;100483.63;5093042;28;20204;-68
2023/10/03 06:42:07;;;;;;;4.07;3.17;;;;;;;18.00;74.37;100492.63;5094275;28;20208;-68
2023/10/03 06:44:35;;;;;;;3.77;3.30;;;;;;;18.01;74.58;100490.88;5093630;28;20230;-67
2023/10/03 06:47:07;;;;;;;2.70;2.50;;;;;;;18.09;75.13;100494.00;5093894;28;20663;-68
2023/10/03 06:49:34;;;;;;;4.83;2.07;;;;;;;18.23;75.04;100496.81;5093383;28;20197;-68
2023/10/03 06:52:01;;;;;;;3.60;2.97;;;;;;;18.37;72.91;100499.66;5092138;28;20258;-66
2023/10/03 06:54:29;;;;;;;10.97;6.80;;;;;;;18.47;71.97;100500.09;5092786;28;20232;-67
2023/10/03 06:56:56;;;;;;;5.20;4.70;;;;;;;18.52;74.02;100493.81;5092521;28;20205;-67
2023/10/03 06:59:23;;;;;;;17.13;10.67;;;;;;;18.58;73.01;100492.72;5092929;28;20205;-63
2023/10/03 07:01:49;;;;;;;16.23;7.83;;;;;;;18.66;72.35;100496.63;5087931;28;20200;-62
2023/10/03 07:04:17;;;;;;;5.67;4.33;;;;;;;18.77;71.51;100488.34;5092650;28;20212;-64
2023/10/03 07:06:45;;;;;;;3.43;3.13;;;;;;;18.80;71.79;100494.22;5088626;28;20202;-65
2023/10/03 07:09:13;;;;;;;3.77;2.87;;;;;;;18.95;71.58;100491.81;5092873;28;20579;-67
2023/10/03 07:11:40;;;;;;;3.93;2.77;;;;;;;19.15;70.94;100491.72;5092550;28;20204;-63
2023/10/03 07:14:12;;;;;;;3.03;2.83;;;;;;;19.35;70.08;100499.41;5090321;28;20259;-64
2023/10/03 07:16:41;;;;;;;7.93;2.90;;;;;;;19.52;69.06;100494.25;5089887;28;20214;-61
2023/10/03 07:19:09;;;;;;;2.57;2.43;;;;;;;19.70;67.44;100487.28;5092761;28;20243;-68
2023/10/03 07:21:37;;;;;;;2.90;2.30;;;;;;;19.78;67.29;100491.19;5093303;28;20227;-65
2023/10/03 07:24:05;;;;;;;2.57;1.93;;;;;;;19.97;66.77;100490.25;5092762;28;20209;-66
2023/10/03 07:26:32;;;;;;;2.03;1.93;;;;;;;20.12;65.40;100500.72;5092836;28;20673;-65
2023/10/03 07:29:00;;;;;;;2.40;2.03;;;;;;;20.29;63.54;100490.28;5092610;28;20666;-65
2023/10/03 07:31:27;;;;;;;2.53;2.23;;;;;;;20.48;63.30;100487.56;5080473;28;20202;-66
2023/10/03 07:33:55;;;;;;;3.27;1.50;;;;;;;20.73;63.21;100487.91;5092119;28;20226;-66
2023/10/03 07:36:22;;;;;;;2.47;2.17;;;;;;;20.89;61.07;100490.50;5092923;28;20615;-66
2023/10/03 07:38:50;;;;;;;4.50;1.80;;;;;;;21.03;60.03;100484.53;5092361;28;20206;-67
2023/10/03 07:41:18;;;;;;;2.53;1.60;;;;;;;21.15;59.72;100489.09;5092702;28;20586;-65
2023/10/03 07:43:53;;;;;;;1.53;1.50;;;;;;;21.30;59.47;100493.44;5092992;28;20206;-65
2023/10/03 07:46:21;;;;;;;4.33;1.77;;;;;;;21.54;58.47;100488.59;5092492;28;20206;-65
2023/10/03 07:48:52;;;;;;;4.93;2.13;;;;;;;21.50;57.17;100464.44;5088233;28;20246;-67
2023/10/03 07:51:19;;;;;;;5.37;2.10;;;;;;;21.77;57.96;100483.72;5092567;28;20202;-66
2023/10/03 07:53:46;;;;;;;2.63;1.47;;;;;;;21.97;56.50;100482.56;5092441;28;20223;-65
2023/10/03 07:56:25;;;;;;;1.37;1.37;;;;;;;22.16;54.44;100490.13;5092454;28;20237;-67
2023/10/03 07:58:54;;;;;;;2.43;1.67;;;;;;;22.26;54.49;100486.03;5092494;28;20206;-66
2023/10/03 08:01:24;;;;;;;1.97;1.83;;;;;;;22.35;52.85;100490.69;5092413;28;20207;-68
2023/10/03 08:03:53;;;;;;;1.97;1.87;;;;;;;22.07;53.89;100488.88;5091811;28;20709;-67
2023/10/03 08:06:22;;;;;;;2.80;2.17;;;;;;;22.25;53.07;100489.56;5092434;28;20582;-66
2023/10/03 08:08:52;;;;;;;1.30;1.20;;;;;;;22.48;54.39;100476.78;5092738;28;20199;-67
2023/10/03 08:11:28;;;;;;;1.73;1.63;;;;;;;22.62;51.70;100480.28;5092515;28;20578;-66
2023/10/03 08:13:56;;;;;;;1.77;1.67;;;;;;;22.85;53.30;100479.69;5086820;28;20218;-66
2023/10/03 08:16:23;;;;;;;2.03;1.77;;;;;;;22.97;52.81;100474.50;5092216;28;20207;-66
2023/10/03 08:18:57;;;;;;;1.83;1.67;;;;;;;23.20;51.58;100490.53;5091892;28;20260;-67
2023/10/03 08:21:27;;;;;;;4.07;2.70;;;;;;;23.27;49.66;100484.78;5091905;28;20642;-67
2023/10/03 08:23:56;;;;;;;2.30;1.70;;;;;;;23.43;51.69;100482.00;5092367;28;20206;-66
2023/10/03 08:26:25;;;;;;;1.73;1.63;;;;;;;23.58;48.74;100485.41;5092177;28;20203;-67
2023/10/03 08:29:03;;;;;;;2.27;1.97;;;;;;;23.67;51.02;100480.41;5092183;28;20248;-67
2023/10/03 08:31:31;;;;;;;2.60;1.43;;;;;;;23.76;50.70;100477.16;5091995;28;20290;-67
2023/10/03 08:33:58;;;;;;;2.43;1.67;;;;;;;23.72;47.32;100483.53;5091967;28;20769;-67
2023/10/03 08:36:27;;;;;;;5.83;1.83;;;;;;;23.74;46.85;100455.50;5091794;28;20241;-67
2023/10/03 08:39:04;;;;;;;1.43;1.33;;;;;;;23.94;47.83;100473.28;5092250;28;20203;-66
2023/10/03 08:41:45;;;;;;;1.53;1.43;;;;;;;24.05;47.02;100475.16;5092232;28;20199;-66
2023/10/03 08:44:13;;;;;;;1.60;1.50;;;;;;;24.09;46.68;100468.78;5091946;28;20199;-67
2023/10/03 08:46:45;;;;;;;2.80;1.60;;;;;;;24.20;47.03;100465.47;5091848;28;20207;-67
2023/10/03 08:49:17;;;;;;;1.43;1.37;;;;;;;24.18;46.07;100464.72;5091779;28;20209;-67
2023/10/03 08:51:46;;;;;;;2.03;1.63;;;;;;;24.09;45.09;100454.84;5091850;28;20203;-66
2023/10/03 08:54:14;;;;;;;2.70;1.30;;;;;;;24.09;45.98;100460.09;5091732;28;20302;-67
2023/10/03 08:56:43;;;;;;;1.20;1.10;;;;;;;24.01;45.66;100460.59;5091693;28;20552;-67
2023/10/03 08:59:15;;;;;;;1.23;1.13;;;;;;;24.28;44.92;100447.41;5091807;28;20268;-66
2023/10/03 09:01:45;;;;;;;2.00;1.33;;;;;;;24.20;44.07;100445.31;5091303;28;20226;-68
2023/10/03 09:04:16;;;;;;;2.50;1.30;;;;;;;24.09;45.31;100449.59;5090731;28;20206;-67
2023/10/03 09:06:44;;;;;;;2.30;1.20;;;;;;;24.16;44.87;100441.25;5091751;28;20237;-66
2023/10/03 09:09:13;;;;;;;5.23;1.40;;;;;;;24.24;45.46;100438.91;5090894;28;20663;-63
2023/10/03 09:11:43;;;;;;;2.60;0.90;;;;;;;24.37;45.13;100444.13;5088616;28;20206;-64
2023/10/03 09:14:19;;;;;;;2.33;1.37;;;;;;;24.34;43.75;100441.72;5089414;28;20302;-62
2023/10/03 09:16:50;;;;;;;1.27;1.27;;;;;;;24.46;44.40;100438.22;5093268;28;20600;-63
2023/10/03 09:19:23;;;;;;;0.83;0.83;;;;;;;24.42;43.17;100442.03;5094094;28;20575;-63
2023/10/03 09:21:51;;;;;;;4.90;1.37;;;;;;;24.45;43.29;100440.03;5092435;28;20289;-63
2023/10/03 09:24:21;;;;;;;1.33;0.93;;;;;;;24.50;44.01;100434.44;5093748;28;20234;-63
2023/10/03 09:26:51;;;;;;;1.07;1.03;;;;;;;24.48;43.89;100436.34;5091697;28;20867;-64
2023/10/03 09:29:29;;;;;;;1.60;1.50;;;;;;;24.36;43.65;100438.03;5093778;28;20248;-63
2023/10/03 09:31:57;;;;;;;1.27;1.17;;;;;;;24.49;44.17;100438.03;5093550;28;20210;-63
2023/10/03 09:34:30;;;;;;;1.27;1.27;;;;;;;24.43;42.13;100428.81;5092171;28;20277;-64
2023/10/03 09:36:58;;;;;;;2.57;1.40;;;;;;;24.33;42.32;100427.78;5092345;28;20231;-67
2023/10/03 09:39:26;;;;;;;1.30;1.20;;;;;;;24.22;43.33;100419.84;5091997;28;20665;-64
2023/10/03 09:41:55;;;;;;;1.63;1.23;;;;;;;24.27;42.25;100407.25;5091704;28;20740;-64
2023/10/03 09:44:29;;;;;;;3.40;1.27;;;;;;;24.54;44.03;100420.19;5091858;28;20199;-64
2023/10/03 09:47:00;;;;;;;0.90;0.90;;;;;;;24.67;44.44;100413.13;5093242;28;20199;-63
2023/10/03 09:49:36;;;;;;;1.77;1.67;;;;;;;24.83;42.15;100410.25;5093405;28;20217;-64
2023/10/03 09:52:07;;;;;;;1.33;1.10;;;;;;;24.88;43.39;100414.19;5091476;28;20191;-64
2023/10/03 09:54:36;;;;;;;1.60;1.50;;;;;;;24.97;41.08;100410.09;5089018;28;20588;-65
2023/10/03 09:57:16;;;;;;;5.00;1.47;;;;;;;25.05;41.51;100415.59;5092320;28;20210;-65
2023/10/03 09:59:45;;;;;;;0.87;0.87;;;;;;;25.04;42.72;100408.69;5091269;28;20559;-64
2023/10/03 10:02:14;;;;;;;1.50;1.40;;;;;;;24.98;41.02;100404.69;5092971;28;20647;-66
2023/10/03 10:04:42;;;;;;;1.33;1.23;;;;;;;24.62;40.04;100406.53;5091772;28;20617;-67
2023/10/03 10:07:17;;;;;;;1.50;1.40;;;;;;;24.55;40.12;100406.13;5091730;28;20203;-77
2023/10/03 10:09:54;;;;;;;1.67;1.53;;;;;;;24.63;41.33;100398.53;5093441;28;20682;-76
2023/10/03 10:12:22;;;;;;;1.60;0.73;;;;;;;24.29;40.87;100404.53;5093308;28;20260;-75
2023/10/03 10:15:13;;;;;;;2.03;1.50;;;;;;;24.23;41.16;100397.13;5093884;28;20223;-76
2023/10/03 10:17:45;;;;;;;1.67;1.57;;;;;;;24.48;41.16;100389.16;5094088;28;20703;-77
2023/10/03 10:20:17;;;;;;;2.43;1.17;;;;;;;24.53;42.75;100358.19;5093710;28;20222;-77
2023/10/03 10:23:16;;;;;;;0.90;0.90;;;;;;;24.75;40.47;100381.09;5093827;28;20191;-76
2023/10/03 10:25:50;;;;;;;1.50;1.40;;;;;;;24.98;41.18;100373.22;5092102;28;20651;-76
2023/10/03 10:28:25;;;;;;;1.90;1.70;;;;;;;24.95;40.29;100370.81;5093261;28;22011;-64
2023/10/03 10:31:25;;;;;;;1.90;1.80;;;;;;;24.92;40.94;100372.84;5092537;28;20281;-65
2023/10/03 10:34:46;;;;;;;3.57;1.30;;;;;;;24.77;40.94;100372.16;5091693;28;20199;-65
2023/10/03 10:37:17;;;;;;;3.10;1.33;;;;;;;24.83;40.85;100361.25;5090528;28;20223;-64
2023/10/03 10:40:21;;;;;;;1.17;1.17;;;;;;;24.96;40.05;100361.16;5092380;28;20203;-65
2023/10/03 10:43:01;;;;;;;1.63;1.47;;;;;;;24.83;41.95;100353.38;5084119;28;20199;-69
2023/10/03 10:45:37;;;;;;;1.07;1.07;;;;;;;24.97;40.09;100353.19;5093804;28;20199;-68
2023/10/03 10:48:05;;;;;;;1.80;1.30;;;;;;;25.08;41.23;100329.59;5093775;28;20224;-67
2023/10/03 10:51:12;;;;;;;1.27;1.17;;;;;;;25.24;39.89;100352.91;5093773;28;20195;-69
2023/10/03 10:53:44;;;;;;;1.90;1.80;;;;;;;25.29;40.30;100348.16;5079245;28;20203;-68
2023/10/03 10:56:12;;;;;;;2.37;1.50;;;;;;;25.26;38.66;100344.91;5093424;28;20254;-68
2023/10/03 10:59:04;;;;;;;1.30;1.20;;;;;;;25.33;38.57;100336.44;5094168;28;20702;-68
2023/10/03 11:01:38;;;;;;;1.40;1.30;;;;;;;25.45;41.58;100329.44;5093373;28;20675;-68
2023/10/03 11:04:06;;;;;;;3.27;1.70;;;;;;;25.57;40.43;100324.09;5093431;28;20205;-69
2023/10/03 11:06:32;;;;;;;1.53;1.37;;;;;;;25.66;39.52;100325.16;5093306;28;20203;-69
2023/10/03 11:08:59;;;;;;;1.50;1.40;;;;;;;25.68;38.80;100325.91;5093893;28;20676;-67
2023/10/03 11:11:36;;;;;;;2.03;1.60;;;;;;;25.64;39.37;100318.38;5093185;28;20622;-67
2023/10/03 11:14:02;;;;;;;1.40;1.40;;;;;;;25.65;39.18;100310.38;5101612;28;20198;-67
2023/10/03 11:16:31;;;;;;;1.67;1.57;;;;;;;25.69;38.50;100309.16;5113493;28;20206;-67
2023/10/03 11:19:00;;;;;;;1.20;1.20;;;;;;;25.79;39.26;100302.22;5099646;28;20226;-66
2023/10/03 11:21:29;;;;;;;1.73;1.37;;;;;;;25.81;38.62;100302.97;5093150;28;20203;-66
2023/10/03 11:24:15;;;;;;;1.47;1.47;;;;;;;25.60;37.90;100302.00;5093170;28;20199;-66
2023/10/03 11:26:49;;;;;;;1.17;1.07;;;;;;;25.61;38.28;100295.81;5092946;28;20710;-67
2023/10/03 11:29:32;;;;;;;1.00;1.00;;;;;;;25.57;38.83;100294.38;5092942;28;20207;-68
2023/10/03 11:31:58;;;;;;;2.60;1.10;;;;;;;25.26;38.62;100292.41;5092748;28;20199;-69
2023/10/03 11:34:35;;;;;;;1.90;1.80;;;;;;;25.13;38.65;100287.28;5092766;28;20268;-70
2023/10/03 11:37:03;;;;;;;1.73;1.10;;;;;;;25.10;39.19;100286.69;5092189;28;20245;-71